createdAt,value
2018-02-23T00:00:16.874Z,100481.45
2018-02-23T00:02:42.810Z,100483.30
2018-02-23T00:05:09.263Z,100487.95
2018-02-23T00:07:35.249Z,100491.33
2018-02-23T00:10:01.211Z,100493.32
2018-02-23T00:12:27.138Z,100490.52
2018-02-23T00:14:53.090Z,100493.88
2018-02-23T00:17:19.013Z,100499.31
2018-02-23T00:19:44.953Z,100490.72
2018-02-23T00:22:10.902Z,100491.30
2018-02-23T00:24:36.867Z,100486.45
2018-02-23T00:27:02.800Z,100487.70
2018-02-23T00:29:28.746Z,100486.09
2018-02-23T00:31:54.690Z,100491.91
2018-02-23T00:34:20.633Z,100495.98
2018-02-23T00:36:46.626Z,100497.47
2018-02-23T00:39:12.625Z,100499.13
2018-02-23T00:41:38.568Z,100503.89
2018-02-23T00:44:04.548Z,100501.86
2018-02-23T00:46:30.470Z,100498.70
2018-02-23T00:48:56.404Z,100506.31
2018-02-23T00:51:22.333Z,100508.13
2018-02-23T00:53:48.263Z,100505.66
2018-02-23T00:56:14.297Z,100501.69
2018-02-23T00:58:40.252Z,100500.01
2018-02-23T01:01:06.280Z,100496.58
2018-02-23T01:03:32.252Z,100498.78
2018-02-23T01:05:58.182Z,100498.94
2018-02-23T01:08:24.111Z,100502.20
2018-02-23T01:10:50.060Z,100494.27
2018-02-23T01:13:16.033Z,100489.45
2018-02-23T01:15:41.954Z,100487.36
2018-02-23T01:18:07.878Z,100479.03
2018-02-23T01:20:33.824Z,100475.52
2018-02-23T01:22:59.750Z,100475.97
2018-02-23T01:25:25.686Z,100466.44
2018-02-23T01:27:51.610Z,100465.86
2018-02-23T01:30:17.554Z,100471.02
2018-02-23T01:32:43.539Z,100468.16
2018-02-23T01:35:09.481Z,100469.06
2018-02-23T01:37:35.425Z,100470.48
2018-02-23T01:40:01.373Z,100464.20
2018-02-23T01:42:27.326Z,100466.95
2018-02-23T01:44:53.269Z,100466.56
2018-02-23T01:47:19.196Z,100465.89
2018-02-23T01:49:45.146Z,100440.75
2018-02-23T01:52:11.102Z,100463.19
2018-02-23T01:54:37.044Z,100464.64
2018-02-23T01:57:02.960Z,100457.77
2018-02-23T01:59:28.911Z,100463.90
2018-02-23T02:01:54.850Z,100458.34
2018-02-23T02:04:20.811Z,100456.96
2018-02-23T02:06:46.754Z,100454.48
2018-02-23T02:09:12.726Z,100457.55
2018-02-23T02:11:38.667Z,100449.41
2018-02-23T02:14:04.616Z,100451.51
2018-02-23T02:16:30.557Z,100458.92
2018-02-23T02:18:56.495Z,100456.63
2018-02-23T02:21:22.440Z,100449.97
2018-02-23T02:23:48.769Z,100444.32
2018-02-23T02:26:14.720Z,100448.52
2018-02-23T02:28:40.659Z,100439.64
2018-02-23T02:31:06.612Z,100444.31
2018-02-23T02:33:32.535Z,100439.11
2018-02-23T02:35:58.476Z,100429.06
2018-02-23T02:38:24.414Z,100437.59
2018-02-23T02:40:50.339Z,100433.03
2018-02-23T02:43:16.278Z,100435.16
2018-02-23T02:45:42.216Z,100429.06
2018-02-23T02:48:08.144Z,100441.66
2018-02-23T02:50:34.077Z,100430.52
2018-02-23T02:53:00.016Z,100427.67
2018-02-23T02:55:25.951Z,100431.92
2018-02-23T02:57:51.901Z,100428.20
2018-02-23T03:00:17.826Z,100434.02
2018-02-23T03:02:43.762Z,100433.09
2018-02-23T03:05:09.789Z,100428.48
2018-02-23T03:07:35.719Z,100427.22
2018-02-23T03:10:01.647Z,100421.55
2018-02-23T03:12:27.598Z,100421.43
2018-02-23T03:14:53.552Z,100419.42
2018-02-23T03:17:19.487Z,100421.53
2018-02-23T03:19:45.431Z,100415.83
2018-02-23T03:22:11.371Z,100419.46
2018-02-23T03:24:37.331Z,100428.10
2018-02-23T03:27:03.317Z,100418.45
2018-02-23T03:29:29.252Z,100420.97
2018-02-23T03:31:55.180Z,100419.22
2018-02-23T03:34:21.154Z,100425.91
2018-02-23T03:36:47.141Z,100420.69
2018-02-23T03:39:13.138Z,100429.16
2018-02-23T03:41:39.082Z,100428.45
2018-02-23T03:44:05.007Z,100434.65
2018-02-23T03:46:30.954Z,100417.18
2018-02-23T03:48:56.897Z,100431.98
2018-02-23T03:51:22.832Z,100436.55
2018-02-23T03:53:48.776Z,100435.64
2018-02-23T03:56:14.723Z,100441.67
2018-02-23T03:58:40.659Z,100450.34
2018-02-23T04:01:06.623Z,100447.98
2018-02-23T04:03:32.601Z,100444.45
2018-02-23T04:05:58.560Z,100451.81
2018-02-23T04:08:24.503Z,100458.85
2018-02-23T04:10:50.445Z,100461.77
2018-02-23T04:13:16.397Z,100469.53
2018-02-23T04:15:42.352Z,100471.52
2018-02-23T04:18:08.290Z,100471.67
2018-02-23T04:20:34.216Z,100471.61
2018-02-23T04:23:00.156Z,100468.52
2018-02-23T04:25:26.090Z,100475.91
2018-02-23T04:27:52.029Z,100482.13
2018-02-23T04:30:17.965Z,100481.27
2018-02-23T04:32:43.919Z,100477.76
2018-02-23T04:35:09.871Z,100479.94
2018-02-23T04:37:35.807Z,100475.17
2018-02-23T04:40:01.753Z,100473.95
2018-02-23T04:42:27.787Z,100471.81
2018-02-23T04:44:53.727Z,100476.37
2018-02-23T04:47:19.717Z,100478.02
2018-02-23T04:49:45.739Z,100480.56
2018-02-23T04:52:11.693Z,100475.89
2018-02-23T04:54:37.663Z,100478.85
2018-02-23T04:57:03.611Z,100469.16
2018-02-23T04:59:29.552Z,100469.90
2018-02-23T05:01:55.560Z,100465.15
2018-02-23T05:04:21.511Z,100465.86
2018-02-23T05:06:47.453Z,100470.33
2018-02-23T05:09:13.401Z,100476.12
2018-02-23T05:11:39.336Z,100474.50
2018-02-23T05:14:05.296Z,100472.98
2018-02-23T05:16:31.253Z,100472.17
2018-02-23T05:18:57.191Z,100474.70
2018-02-23T05:21:23.135Z,100475.23
2018-02-23T05:23:49.100Z,100475.41
2018-02-23T05:26:15.049Z,100474.13
2018-02-23T05:28:40.987Z,100475.24
2018-02-23T05:31:06.928Z,100475.59
2018-02-23T05:33:32.857Z,100474.81
2018-02-23T05:35:58.797Z,100476.02
2018-02-23T05:38:24.729Z,100473.21
2018-02-23T05:40:50.661Z,100468.19
2018-02-23T05:43:16.615Z,100478.84
2018-02-23T05:45:42.589Z,100477.76
2018-02-23T05:48:08.568Z,100484.00
2018-02-23T05:50:34.469Z,100482.14
2018-02-23T05:53:00.441Z,100483.59
2018-02-23T05:55:26.384Z,100480.35
2018-02-23T05:57:52.328Z,100483.39
2018-02-23T06:00:18.285Z,100493.03
2018-02-23T06:02:44.226Z,100495.13
2018-02-23T06:05:10.171Z,100498.48
2018-02-23T06:07:36.143Z,100505.02
2018-02-23T06:10:02.092Z,100514.67
2018-02-23T06:12:28.059Z,100510.84
2018-02-23T06:14:54.039Z,100515.22
2018-02-23T06:17:19.975Z,100507.71
2018-02-23T06:19:45.955Z,100513.73
2018-02-23T06:22:11.958Z,100517.63
2018-02-23T06:24:37.902Z,100521.00
2018-02-23T06:27:03.833Z,100524.08
2018-02-23T06:29:29.810Z,100527.77
2018-02-23T06:31:55.778Z,100531.90
2018-02-23T06:34:21.731Z,100528.05
2018-02-23T06:36:47.665Z,100521.98
2018-02-23T06:39:13.627Z,100520.20
2018-02-23T06:41:39.574Z,100521.63
2018-02-23T06:44:05.515Z,100519.65
2018-02-23T06:46:31.464Z,100525.23
2018-02-23T06:48:57.410Z,100537.74
2018-02-23T06:51:23.381Z,100535.18
2018-02-23T06:53:49.377Z,100533.17
2018-02-23T06:56:15.302Z,100528.26
2018-02-23T06:58:41.256Z,100528.23
2018-02-23T07:01:07.200Z,100526.20
2018-02-23T07:03:33.255Z,100532.67
2018-02-23T07:05:59.221Z,100529.14
2018-02-23T07:08:25.153Z,100530.50
2018-02-23T07:10:51.153Z,100528.15
2018-02-23T07:13:17.098Z,100530.48
2018-02-23T07:15:43.044Z,100531.61
2018-02-23T07:18:08.991Z,100526.77
2018-02-23T07:20:34.963Z,100532.42
2018-02-23T07:23:00.901Z,100533.83
2018-02-23T07:25:26.838Z,100539.94
2018-02-23T07:27:52.764Z,100545.59
2018-02-23T07:30:18.710Z,100551.52
2018-02-23T07:32:44.628Z,100550.38
2018-02-23T07:35:10.617Z,100555.11
2018-02-23T07:37:36.599Z,100552.06
2018-02-23T07:40:02.559Z,100558.33
2018-02-23T07:42:28.573Z,100525.48
2018-02-23T07:44:54.483Z,100555.42
2018-02-23T07:47:20.422Z,100559.33
2018-02-23T07:49:46.417Z,100562.44
2018-02-23T07:52:12.362Z,100564.72
2018-02-23T07:54:38.298Z,100568.11
2018-02-23T07:57:04.275Z,100573.41
2018-02-23T07:59:30.228Z,100570.30
2018-02-23T08:01:56.180Z,100570.36
2018-02-23T08:04:22.126Z,100574.95
2018-02-23T08:06:48.072Z,100573.49
2018-02-23T08:09:14.020Z,100583.27
2018-02-23T08:11:39.960Z,100577.27
2018-02-23T08:14:05.992Z,100576.61
2018-02-23T08:16:31.966Z,100578.02
2018-02-23T08:18:57.923Z,100583.27
2018-02-23T08:21:23.894Z,100574.16
2018-02-23T08:23:49.855Z,100577.87
2018-02-23T08:26:15.849Z,100584.32
2018-02-23T08:28:41.903Z,100575.66
2018-02-23T08:31:07.906Z,100584.86
2018-02-23T08:33:33.843Z,100581.56
2018-02-23T08:35:59.798Z,100572.48
2018-02-23T08:38:25.760Z,100564.38
2018-02-23T08:40:51.716Z,100570.05
2018-02-23T08:43:17.722Z,100575.56
2018-02-23T08:45:43.710Z,100571.05
2018-02-23T08:48:09.672Z,100577.91
2018-02-23T08:50:35.628Z,100574.35
2018-02-23T08:53:01.612Z,100579.43
2018-02-23T08:55:27.554Z,100574.34
2018-02-23T08:57:53.536Z,100582.92
2018-02-23T09:00:19.476Z,100585.31
2018-02-23T09:02:45.433Z,100568.75
2018-02-23T09:05:11.416Z,100576.20
2018-02-23T09:07:37.364Z,100568.78
2018-02-23T09:10:03.346Z,100575.02
2018-02-23T09:12:29.303Z,100569.28
2018-02-23T09:14:55.248Z,100564.06
2018-02-23T09:17:21.194Z,100578.52
2018-02-23T09:19:47.148Z,100572.78
2018-02-23T09:22:13.116Z,100573.95
2018-02-23T09:24:39.241Z,100576.66
2018-02-23T09:27:05.168Z,100579.09
2018-02-23T09:29:31.104Z,100584.19
2018-02-23T09:31:57.066Z,100590.59
2018-02-23T09:34:23.011Z,100593.05
2018-02-23T09:36:48.973Z,100596.72
2018-02-23T09:39:14.917Z,100596.33
2018-02-23T09:41:40.850Z,100595.80
2018-02-23T09:44:06.814Z,100595.97
2018-02-23T09:46:32.748Z,100590.50
2018-02-23T09:48:58.678Z,100586.92
2018-02-23T09:51:24.638Z,100584.36
2018-02-23T09:53:50.574Z,100589.30
2018-02-23T09:56:16.538Z,100585.55
2018-02-23T09:58:42.491Z,100590.13
2018-02-23T10:01:08.469Z,100595.41
2018-02-23T10:03:34.438Z,100587.44
2018-02-23T10:06:00.414Z,100592.45
2018-02-23T10:08:26.349Z,100591.80
2018-02-23T10:10:52.360Z,100586.49
2018-02-23T10:13:18.254Z,100594.69
2018-02-23T10:15:44.206Z,100598.89
2018-02-23T10:18:10.156Z,100588.25
2018-02-23T10:20:36.198Z,100587.23
2018-02-23T10:23:02.173Z,100588.66
2018-02-23T10:25:28.110Z,100587.28
2018-02-23T10:27:54.067Z,100591.15
2018-02-23T10:30:20.242Z,100582.77
2018-02-23T10:32:46.263Z,100587.58
2018-02-23T10:35:12.194Z,100591.12
2018-02-23T10:37:38.120Z,100586.44
2018-02-23T10:40:04.129Z,100589.41
2018-02-23T10:42:30.083Z,100566.93
2018-02-23T10:44:56.035Z,100597.55
2018-02-23T10:47:21.974Z,100594.02
2018-02-23T10:49:47.908Z,100590.52
2018-02-23T10:52:13.846Z,100594.17
2018-02-23T10:54:39.770Z,100576.63
2018-02-23T10:57:05.711Z,100593.19
2018-02-23T10:59:31.642Z,100583.14
2018-02-23T11:01:57.600Z,100589.53
2018-02-23T11:04:23.552Z,100573.95
2018-02-23T11:06:49.518Z,100581.16
2018-02-23T11:09:15.454Z,100582.23
2018-02-23T11:11:41.401Z,100576.00
2018-02-23T11:14:07.330Z,100584.53
2018-02-23T11:16:33.293Z,100590.81
2018-02-23T11:18:59.231Z,100582.11
2018-02-23T11:21:25.170Z,100586.27
2018-02-23T11:23:51.109Z,100589.84
2018-02-23T11:26:17.061Z,100581.12
2018-02-23T11:28:43.015Z,100577.27
2018-02-23T11:31:08.963Z,100578.88
2018-02-23T11:33:34.890Z,100578.27
2018-02-23T11:36:00.848Z,100578.84
2018-02-23T11:38:26.799Z,100574.61
2018-02-23T11:40:52.788Z,100572.63
2018-02-23T11:43:18.733Z,100541.41
2018-02-23T11:45:44.696Z,100573.35
2018-02-23T11:48:10.747Z,100564.12
2018-02-23T11:50:36.707Z,100571.41
2018-02-23T11:53:02.671Z,100568.23
2018-02-23T11:55:28.604Z,100566.81
2018-02-23T11:57:54.564Z,100567.17
2018-02-23T12:00:20.525Z,100560.86
2018-02-23T12:02:46.471Z,100569.48
2018-02-23T12:05:12.411Z,100572.33
2018-02-23T12:07:38.355Z,100568.31
2018-02-23T12:10:04.295Z,100569.88
2018-02-23T12:12:30.245Z,100580.30
2018-02-23T12:14:56.235Z,100571.45
2018-02-23T12:17:22.179Z,100577.91
2018-02-23T12:19:48.127Z,100574.09
2018-02-23T12:22:14.059Z,100578.04
2018-02-23T12:24:40.011Z,100567.65
2018-02-23T12:27:05.951Z,100566.46
2018-02-23T12:29:31.925Z,100561.48
2018-02-23T12:31:57.867Z,100562.63
2018-02-23T12:34:23.854Z,100561.30
2018-02-23T12:36:49.795Z,100557.48
2018-02-23T12:39:15.749Z,100560.69
2018-02-23T12:41:41.703Z,100563.47
2018-02-23T12:44:07.640Z,100556.91
2018-02-23T12:46:33.599Z,100551.78
2018-02-23T12:48:59.557Z,100556.51
2018-02-23T12:51:25.493Z,100550.98
2018-02-23T12:53:51.435Z,100547.37
2018-02-23T12:56:17.379Z,100561.86
2018-02-23T12:58:43.325Z,100549.95
2018-02-23T13:01:09.291Z,100562.66
2018-02-23T13:03:35.227Z,100557.41
2018-02-23T13:06:01.163Z,100553.34
2018-02-23T13:08:27.105Z,100550.61
2018-02-23T13:10:53.050Z,100547.87
2018-02-23T13:13:19.013Z,100540.62
2018-02-23T13:15:44.959Z,100540.27
2018-02-23T13:18:10.916Z,100544.24
2018-02-23T13:20:36.871Z,100536.46
2018-02-23T13:23:02.814Z,100549.86
2018-02-23T13:25:28.759Z,100541.77
2018-02-23T13:27:54.704Z,100541.13
2018-02-23T13:30:20.655Z,100537.28
2018-02-23T13:32:46.579Z,100541.50
2018-02-23T13:35:12.507Z,100538.00
2018-02-23T13:37:38.462Z,100538.41
2018-02-23T13:40:04.427Z,100533.58
2018-02-23T13:42:30.383Z,100538.98
2018-02-23T13:44:56.385Z,100528.86
2018-02-23T13:47:22.327Z,100526.45
2018-02-23T13:49:48.307Z,100529.50
2018-02-23T13:52:14.261Z,100536.07
2018-02-23T13:54:40.205Z,100535.74
2018-02-23T13:57:06.178Z,100527.18
2018-02-23T13:59:32.117Z,100529.20
2018-02-23T14:01:58.051Z,100536.34
2018-02-23T14:04:23.991Z,100539.79
2018-02-23T14:06:49.934Z,100529.70
2018-02-23T14:09:15.885Z,100532.83
2018-02-23T14:11:41.857Z,100535.94
2018-02-23T14:14:07.820Z,100529.61
2018-02-23T14:16:33.765Z,100523.22
2018-02-23T14:18:59.697Z,100521.65
2018-02-23T14:21:25.626Z,100524.02
2018-02-23T14:23:51.587Z,100523.64
2018-02-23T14:26:17.552Z,100527.69
2018-02-23T14:28:43.481Z,100529.06
2018-02-23T14:31:09.499Z,100530.06
2018-02-23T14:33:35.436Z,100527.85
2018-02-23T14:36:01.399Z,100534.45
2018-02-23T14:38:27.332Z,100533.56
2018-02-23T14:40:53.268Z,100538.28
2018-02-23T14:43:19.209Z,100534.75
2018-02-23T14:45:45.190Z,100533.41
2018-02-23T14:48:11.132Z,100524.23
2018-02-23T14:50:37.082Z,100529.53
2018-02-23T14:53:03.014Z,100537.31
2018-02-23T14:55:28.975Z,100535.58
2018-02-23T14:57:54.906Z,100530.72
2018-02-23T15:00:20.866Z,100534.48
2018-02-23T15:02:46.824Z,100534.14
2018-02-23T15:05:12.762Z,100541.23
2018-02-23T15:07:38.716Z,100545.26
2018-02-23T15:10:04.692Z,100552.09
2018-02-23T15:12:30.638Z,100542.75
2018-02-23T15:14:56.594Z,100538.86
2018-02-23T15:17:22.530Z,100547.82
2018-02-23T15:19:48.487Z,100543.91
2018-02-23T15:22:14.418Z,100545.26
2018-02-23T15:24:40.372Z,100548.24
2018-02-23T15:27:06.306Z,100543.84
2018-02-23T15:29:32.274Z,100548.87
2018-02-23T15:31:58.209Z,100553.91
2018-02-23T15:34:24.156Z,100551.06
2018-02-23T15:36:50.093Z,100552.30
2018-02-23T15:39:16.058Z,100549.36
2018-02-23T15:41:42.077Z,100542.36
2018-02-23T15:44:08.028Z,100551.56
2018-02-23T15:46:33.980Z,100547.31
2018-02-23T15:48:59.954Z,100550.30
2018-02-23T15:51:25.891Z,100560.42
2018-02-23T15:53:51.851Z,100564.89
2018-02-23T15:56:17.810Z,100557.30
2018-02-23T15:58:43.751Z,100561.45
2018-02-23T16:01:09.691Z,100564.52
2018-02-23T16:03:35.646Z,100570.92
2018-02-23T16:06:01.595Z,100566.77
2018-02-23T16:08:27.534Z,100568.30
2018-02-23T16:10:53.464Z,100563.48
2018-02-23T16:13:19.398Z,100565.16
2018-02-23T16:15:45.334Z,100561.33
2018-02-23T16:18:11.308Z,100561.27
2018-02-23T16:20:37.344Z,100565.13
2018-02-23T16:23:03.275Z,100567.33
2018-02-23T16:25:29.232Z,100570.75
2018-02-23T16:27:55.174Z,100562.92
2018-02-23T16:30:21.207Z,100567.01
2018-02-23T16:32:47.146Z,100559.84
2018-02-23T16:35:13.081Z,100566.84
2018-02-23T16:37:39.034Z,100582.28
2018-02-23T16:40:04.989Z,100570.83
2018-02-23T16:42:30.946Z,100572.22
2018-02-23T16:44:56.894Z,100566.13
2018-02-23T16:47:22.870Z,100573.91
2018-02-23T16:49:48.907Z,100586.41
2018-02-23T16:52:14.834Z,100571.49
2018-02-23T16:54:40.774Z,100576.48
2018-02-23T16:57:06.719Z,100590.11
2018-02-23T16:59:32.714Z,100602.39
2018-02-23T17:01:58.702Z,100598.03
2018-02-23T17:04:24.685Z,100610.70
2018-02-23T17:06:50.606Z,100605.06
2018-02-23T17:09:16.551Z,100606.77
2018-02-23T17:11:42.493Z,100611.34
2018-02-23T17:14:08.437Z,100616.86
2018-02-23T17:16:34.387Z,100620.21
2018-02-23T17:19:00.298Z,100620.73
2018-02-23T17:21:26.238Z,100626.03
2018-02-23T17:23:52.167Z,100629.84
2018-02-23T17:26:18.127Z,100624.78
2018-02-23T17:28:44.099Z,100635.12
2018-02-23T17:31:10.025Z,100631.17
2018-02-23T17:33:37.123Z,100634.22
2018-02-23T17:36:03.143Z,100630.02
2018-02-23T17:38:29.097Z,100639.16
2018-02-23T17:40:55.049Z,100632.01
2018-02-23T17:43:21.009Z,100634.20
2018-02-23T17:45:46.955Z,100635.05
2018-02-23T17:48:12.923Z,100630.46
2018-02-23T17:50:38.863Z,100638.76
2018-02-23T17:53:04.811Z,100633.86
2018-02-23T17:55:30.802Z,100642.33
2018-02-23T17:57:56.712Z,100637.93
2018-02-23T18:00:22.655Z,100642.09
2018-02-23T18:02:48.934Z,100644.45
2018-02-23T18:05:14.903Z,100648.64
2018-02-23T18:07:40.851Z,100647.64
2018-02-23T18:10:06.861Z,100650.22
2018-02-23T18:12:32.885Z,100644.59
2018-02-23T18:14:58.837Z,100656.74
2018-02-23T18:17:24.803Z,100644.41
2018-02-23T18:19:50.759Z,100653.77
2018-02-23T18:22:16.742Z,100652.66
2018-02-23T18:24:42.754Z,100656.38
2018-02-23T18:27:08.695Z,100658.74
2018-02-23T18:29:34.639Z,100659.55
2018-02-23T18:32:00.579Z,100656.20
2018-02-23T18:34:26.547Z,100664.50
2018-02-23T18:36:52.497Z,100665.95
2018-02-23T18:39:18.536Z,100665.78
2018-02-23T18:41:44.493Z,100660.61
2018-02-23T18:44:10.441Z,100666.55
2018-02-23T18:46:36.382Z,100667.86
2018-02-23T18:49:02.365Z,100675.67
2018-02-23T18:51:28.297Z,100673.06
2018-02-23T18:53:54.249Z,100674.56
2018-02-23T18:56:20.188Z,100671.53
2018-02-23T18:58:46.217Z,100665.31
2018-02-23T19:01:12.179Z,100674.13
2018-02-23T19:03:38.118Z,100663.50
2018-02-23T19:06:04.111Z,100671.66
2018-02-23T19:08:30.047Z,100675.88
2018-02-23T19:10:56.028Z,100678.00
2018-02-23T19:13:21.963Z,100679.24
2018-02-23T19:15:47.905Z,100679.27
2018-02-23T19:18:13.857Z,100672.78
2018-02-23T19:20:39.805Z,100672.33
2018-02-23T19:23:05.735Z,100665.33
2018-02-23T19:25:31.695Z,100676.45
2018-02-23T19:27:57.659Z,100671.40
2018-02-23T19:30:23.869Z,100666.67
2018-02-23T19:32:49.805Z,100670.66
2018-02-23T19:35:15.777Z,100671.20
2018-02-23T19:37:41.736Z,100671.84
2018-02-23T19:40:07.692Z,100676.19
2018-02-23T19:42:33.649Z,100681.16
2018-02-23T19:44:59.667Z,100676.78
2018-02-23T19:47:25.676Z,100674.36
2018-02-23T19:49:51.614Z,100681.84
2018-02-23T19:52:17.567Z,100676.63
2018-02-23T19:54:43.517Z,100688.72
2018-02-23T19:57:09.534Z,100694.07
2018-02-23T19:59:35.464Z,100695.01
2018-02-23T20:02:01.418Z,100688.55
2018-02-23T20:04:27.356Z,100701.70
2018-02-23T20:06:53.320Z,100697.81
2018-02-23T20:09:19.272Z,100692.13
2018-02-23T20:11:45.219Z,100700.45
2018-02-23T20:14:11.190Z,100697.00
2018-02-23T20:16:37.131Z,100696.14
2018-02-23T20:19:03.454Z,100697.72
2018-02-23T20:21:29.693Z,100700.96
2018-02-23T20:23:55.780Z,100707.73
2018-02-23T20:26:22.094Z,100708.67
2018-02-23T20:28:48.084Z,100710.20
2018-02-23T20:31:14.012Z,100713.59
2018-02-23T20:33:39.990Z,100716.94
2018-02-23T20:36:05.928Z,100716.98
2018-02-23T20:38:32.002Z,100717.64
2018-02-23T20:40:57.940Z,100717.33
2018-02-23T20:43:23.906Z,100712.27
2018-02-23T20:45:49.883Z,100711.44
2018-02-23T20:48:15.837Z,100713.98
2018-02-23T20:50:41.785Z,100717.98
2018-02-23T20:53:07.753Z,100712.14
2018-02-23T20:55:33.726Z,100720.36
2018-02-23T20:57:59.685Z,100722.19
2018-02-23T21:00:25.619Z,100725.95
2018-02-23T21:02:51.581Z,100726.94
2018-02-23T21:05:17.522Z,100729.05
2018-02-23T21:07:43.474Z,100734.56
2018-02-23T21:10:09.398Z,100732.78
2018-02-23T21:12:35.354Z,100738.78
2018-02-23T21:15:01.303Z,100739.21
2018-02-23T21:17:27.269Z,100736.59
2018-02-23T21:19:53.206Z,100738.76
2018-02-23T21:22:19.168Z,100738.75
2018-02-23T21:24:45.103Z,100734.54
2018-02-23T21:27:11.043Z,100742.08
2018-02-23T21:29:37.060Z,100743.31
2018-02-23T21:32:03.011Z,100742.14
2018-02-23T21:34:28.955Z,100741.38
2018-02-23T21:36:54.909Z,100744.16
2018-02-23T21:39:20.855Z,100750.45
2018-02-23T21:41:46.843Z,100742.17
2018-02-23T21:44:12.833Z,100738.55
2018-02-23T21:46:38.795Z,100741.51
2018-02-23T21:49:04.827Z,100742.22
2018-02-23T21:51:30.860Z,100743.01
2018-02-23T21:53:56.809Z,100743.17
2018-02-23T21:56:22.750Z,100747.06
2018-02-23T21:58:48.710Z,100748.86
2018-02-23T22:01:14.703Z,100751.63
2018-02-23T22:03:40.673Z,100746.91
2018-02-23T22:06:06.619Z,100753.78
2018-02-23T22:08:32.546Z,100756.31
2018-02-23T22:10:58.490Z,100754.14
2018-02-23T22:13:24.439Z,100751.24
2018-02-23T22:15:50.381Z,100751.19
2018-02-23T22:18:16.330Z,100747.27
2018-02-23T22:20:42.276Z,100754.69
2018-02-23T22:23:08.223Z,100748.98
2018-02-23T22:25:34.175Z,100751.27
2018-02-23T22:28:00.115Z,100748.90
2018-02-23T22:30:26.077Z,100755.59
2018-02-23T22:32:52.027Z,100763.70
2018-02-23T22:35:17.983Z,100751.55
2018-02-23T22:37:43.919Z,100753.70
2018-02-23T22:40:09.879Z,100758.13
2018-02-23T22:42:35.801Z,100761.23
2018-02-23T22:45:01.766Z,100765.12
2018-02-23T22:47:27.714Z,100768.01
2018-02-23T22:49:53.655Z,100769.77
2018-02-23T22:52:19.625Z,100770.25
2018-02-23T22:54:45.637Z,100767.88
2018-02-23T22:57:11.601Z,100769.10
2018-02-23T22:59:37.551Z,100769.16
2018-02-23T23:02:03.471Z,100771.51
2018-02-23T23:04:29.410Z,100771.78
2018-02-23T23:06:55.359Z,100770.17
2018-02-23T23:09:21.309Z,100768.63
2018-02-23T23:11:47.301Z,100766.08
2018-02-23T23:14:13.241Z,100764.20
2018-02-23T23:16:39.204Z,100764.14
2018-02-23T23:19:05.144Z,100768.77
2018-02-23T23:21:31.112Z,100766.20
2018-02-23T23:23:57.082Z,100764.25
2018-02-23T23:26:23.033Z,100759.63
2018-02-23T23:28:49.279Z,100755.10
2018-02-23T23:31:15.246Z,100762.36
2018-02-23T23:33:41.205Z,100764.88
2018-02-23T23:36:07.187Z,100766.52
2018-02-23T23:38:33.114Z,100767.61
2018-02-23T23:40:59.083Z,100775.64
2018-02-23T23:43:25.017Z,100767.17
2018-02-23T23:45:50.975Z,100770.12
2018-02-23T23:48:16.910Z,100768.59
2018-02-23T23:50:42.856Z,100771.93
2018-02-23T23:53:08.799Z,100764.45
2018-02-23T23:55:34.748Z,100772.60
2018-02-23T23:58:00.683Z,100765.70
